Time;durP1;ratioP1;P1;durP2;ratioP2;P2;SDS_P1;SDS_P2;PMS_P1;PMS_P2;Temp;Humidity;BMP_temperature;BMP_pressure;BME280_temperature;BME280_humidity;BME280_pressure;Samples;Min_cycle;Max_cycle;Signal;HPM_P1;HPM_P2
2021/07/27 00:00:10;;;;;;;8.00;5.22;;;;;;;;;;143737;594;46020;-55
2021/07/27 00:02:38;;;;;;;9.35;5.85;;;;;;;;;;143736;615;46010;-54
2021/07/27 00:05:05;;;;;;;10.60;6.65;;;;;;;;;;143737;736;46019;-54
2021/07/27 00:07:37;;;;;;;14.25;6.37;;;;;;;;;;143741;606;45021;-54
2021/07/27 00:10:06;;;;;;;10.18;5.70;;;;;;;;;;143735;569;46020;-54
2021/07/27 00:12:34;;;;;;;8.00;5.80;;;;;;;;;;143734;565;46010;-54
2021/07/27 00:15:01;;;;;;;9.77;5.43;;;;;;;;;;143735;619;46018;-55
2021/07/27 00:17:28;;;;;;;8.40;5.72;;;;;;;;;;143735;564;46020;-54
2021/07/27 00:19:56;;;;;;;8.77;5.65;;;;;;;;;;143735;586;46021;-54
2021/07/27 00:22:24;;;;;;;9.23;5.65;;;;;;;;;;143733;575;46020;-54
2021/07/27 00:24:52;;;;;;;7.57;5.28;;;;;;;;;;143732;595;46020;-55
2021/07/27 00:27:19;;;;;;;7.85;5.05;;;;;;;;;;143737;712;46011;-55
2021/07/27 00:29:46;;;;;;;11.50;6.37;;;;;;;;;;143736;603;46020;-54
2021/07/27 00:32:13;;;;;;;12.63;6.37;;;;;;;;;;143734;605;46010;-54
2021/07/27 00:34:40;;;;;;;8.23;5.35;;;;;;;;;;143733;572;46020;-54
2021/07/27 00:37:16;;;;;;;9.68;5.47;;;;;;;;;;143738;578;46012;-54
2021/07/27 00:39:43;;;;;;;12.45;5.97;;;;;;;;;;143736;585;46020;-55
2021/07/27 00:42:14;;;;;;;8.25;5.65;;;;;;;;;;143733;618;46011;-54
2021/07/27 00:44:42;;;;;;;11.25;5.90;;;;;;;;;;143737;644;45021;-54
2021/07/27 00:47:09;;;;;;;10.00;5.97;;;;;;;;;;143737;594;46020;-55
2021/07/27 00:49:36;;;;;;;9.65;5.72;;;;;;;;;;143732;565;46021;-55
2021/07/27 00:52:04;;;;;;;9.55;5.43;;;;;;;;;;143733;704;46010;-54
2021/07/27 00:54:31;;;;;;;12.25;5.85;;;;;;;;;;143735;679;46018;-54
2021/07/27 00:56:58;;;;;;;7.80;5.20;;;;;;;;;;143739;611;45021;-54
2021/07/27 00:59:26;;;;;;;10.52;5.80;;;;;;;;;;143736;692;46020;-55
2021/07/27 01:01:53;;;;;;;9.05;5.55;;;;;;;;;;143733;695;46020;-55
2021/07/27 01:04:20;;;;;;;13.98;6.00;;;;;;;;;;143733;594;46020;-54
2021/07/27 01:06:47;;;;;;;15.05;5.85;;;;;;;;;;143738;639;46021;-54
2021/07/27 01:09:15;;;;;;;13.25;5.40;;;;;;;;;;143734;584;46042;-54
2021/07/27 01:11:42;;;;;;;18.40;6.47;;;;;;;;;;143734;689;46010;-54
2021/07/27 01:14:10;;;;;;;10.02;5.85;;;;;;;;;;143733;658;46020;-54
2021/07/27 01:16:37;;;;;;;12.30;5.85;;;;;;;;;;143739;692;46012;-55
2021/07/27 01:44:04;;;;;;;7.22;5.35;;;;;;;;;;143735;602;46010;-54
2021/07/27 01:46:40;;;;;;;9.70;5.75;;;;;;;;;;143735;573;46018;-54
2021/07/27 01:49:07;;;;;;;16.90;7.35;;;;;;;;;;143737;606;46012;-55
2021/07/27 01:51:43;;;;;;;11.70;5.93;;;;;;;;;;143736;597;46023;-55
2021/07/27 01:54:13;;;;;;;12.70;6.50;;;;;;;;;;143736;569;46010;-54
2021/07/27 01:56:40;;;;;;;14.87;5.90;;;;;;;;;;143737;596;45021;-55
2021/07/27 01:59:10;;;;;;;11.90;5.85;;;;;;;;;;143738;572;46012;-55
2021/07/27 02:01:39;;;;;;;11.57;5.55;;;;;;;;;;143733;601;46022;-54
2021/07/27 02:04:06;;;;;;;7.90;5.68;;;;;;;;;;143733;830;46021;-54
2021/07/27 02:06:34;;;;;;;14.05;5.60;;;;;;;;;;143735;569;46018;-54
2021/07/27 02:09:05;;;;;;;13.70;6.00;;;;;;;;;;143737;565;46012;-54
2021/07/27 02:11:39;;;;;;;11.93;6.37;;;;;;;;;;143735;700;46021;-54
2021/07/27 02:14:06;;;;;;;10.27;6.25;;;;;;;;;;143734;575;46020;-55
2021/07/27 02:16:36;;;;;;;13.10;6.05;;;;;;;;;;143734;564;46018;-53
2021/07/27 02:19:04;;;;;;;10.95;6.55;;;;;;;;;;143736;578;46012;-54
2021/07/27 02:21:32;;;;;;;8.77;5.90;;;;;;;;;;143736;565;46020;-54
2021/07/27 02:24:00;;;;;;;11.50;6.43;;;;;;;;;;143733;610;46020;-54
2021/07/27 02:26:27;;;;;;;13.38;6.75;;;;;;;;;;143735;586;46019;-54
2021/07/27 02:28:55;;;;;;;8.63;5.80;;;;;;;;;;143739;701;45021;-54
2021/07/27 02:34:14;;;;;;;11.15;6.75;;;;;;;;;;143735;566;46011;-54
2021/07/27 02:36:41;;;;;;;16.23;6.60;;;;;;;;;;143735;593;46018;-54
2021/07/27 02:39:08;;;;;;;13.43;6.30;;;;;;;;;;143738;608;46012;-54
2021/07/27 02:41:35;;;;;;;10.20;5.75;;;;;;;;;;143735;715;46021;-55
2021/07/27 02:44:03;;;;;;;11.00;6.57;;;;;;;;;;143733;746;46010;-54
2021/07/27 02:46:30;;;;;;;14.50;6.85;;;;;;;;;;143735;596;46018;-54
2021/07/27 02:49:01;;;;;;;13.40;6.22;;;;;;;;;;143738;580;46012;-54
2021/07/27 02:51:28;;;;;;;9.55;5.85;;;;;;;;;;143732;712;46022;-55
2021/07/27 02:53:55;;;;;;;9.40;6.32;;;;;;;;;;143733;682;46010;-54
2021/07/27 02:56:22;;;;;;;12.10;6.40;;;;;;;;;;143735;602;46019;-55
2021/07/27 02:58:49;;;;;;;14.52;5.32;;;;;;;;;;143734;614;46020;-54
2021/07/27 03:01:16;;;;;;;13.62;6.32;;;;;;;;;;143734;585;46020;-54
2021/07/27 03:03:43;;;;;;;11.50;7.45;;;;;;;;;;143734;670;46010;-54
2021/07/27 03:06:12;;;;;;;8.35;5.97;;;;;;;;;;143733;564;46020;-54
2021/07/27 03:11:38;;;;;;;12.40;6.80;;;;;;;;;;143734;573;46021;-54
2021/07/27 03:14:05;;;;;;;12.37;6.72;;;;;;;;;;143733;780;46020;-55
2021/07/27 03:16:32;;;;;;;12.43;5.80;;;;;;;;;;143732;566;46020;-54
2021/07/27 03:18:59;;;;;;;14.15;6.37;;;;;;;;;;143738;675;46012;-55
2021/07/27 03:21:27;;;;;;;10.75;5.97;;;;;;;;;;143733;633;46023;-55
2021/07/27 03:23:55;;;;;;;19.42;7.03;;;;;;;;;;143732;820;46020;-55
2021/07/27 03:26:23;;;;;;;12.80;5.85;;;;;;;;;;143733;591;46021;-54
2021/07/27 03:28:50;;;;;;;23.12;6.72;;;;;;;;;;143736;615;46020;-54
2021/07/27 03:31:17;;;;;;;10.98;6.05;;;;;;;;;;143733;593;46022;-54
2021/07/27 03:33:44;;;;;;;15.55;6.97;;;;;;;;;;143733;570;46011;-54
2021/07/27 03:36:11;;;;;;;10.35;6.90;;;;;;;;;;143733;566;46020;-55
2021/07/27 03:38:39;;;;;;;12.13;6.43;;;;;;;;;;143737;636;46020;-54
2021/07/27 03:41:10;;;;;;;14.40;6.72;;;;;;;;;;143736;580;46021;-54
2021/07/27 03:43:39;;;;;;;10.07;6.25;;;;;;;;;;143733;688;46020;-54
2021/07/27 03:46:07;;;;;;;12.20;6.18;;;;;;;;;;143735;586;46018;-55
2021/07/27 03:48:34;;;;;;;9.75;6.03;;;;;;;;;;143738;678;46020;-54
2021/07/27 03:51:01;;;;;;;13.70;6.40;;;;;;;;;;143732;629;46022;-54
2021/07/27 03:53:28;;;;;;;19.98;7.62;;;;;;;;;;143732;921;46025;-54
2021/07/27 03:55:55;;;;;;;16.33;7.00;;;;;;;;;;143735;565;46019;-55
2021/07/27 03:58:22;;;;;;;14.73;7.68;;;;;;;;;;143739;594;46010;-54
2021/07/27 04:00:50;;;;;;;25.60;8.65;;;;;;;;;;143734;631;46020;-55
2021/07/27 04:03:17;;;;;;;14.73;8.25;;;;;;;;;;143734;589;46021;-55
2021/07/27 04:05:44;;;;;;;24.05;9.95;;;;;;;;;;143736;587;46010;-53
2021/07/27 04:08:12;;;;;;;29.48;11.05;;;;;;;;;;143739;639;45020;-54
2021/07/27 04:10:40;;;;;;;21.23;9.52;;;;;;;;;;143736;597;46021;-54
2021/07/27 04:13:07;;;;;;;19.37;9.43;;;;;;;;;;143734;569;46010;-54
2021/07/27 04:15:43;;;;;;;18.55;7.75;;;;;;;;;;143735;629;46018;-53
2021/07/27 04:18:10;;;;;;;22.42;9.02;;;;;;;;;;143738;613;46011;-53
2021/07/27 04:20:37;;;;;;;43.10;10.45;;;;;;;;;;143736;566;46020;-53
2021/07/27 04:23:04;;;;;;;25.67;8.32;;;;;;;;;;143732;713;46020;-53
2021/07/27 04:25:32;;;;;;;36.83;10.07;;;;;;;;;;143736;597;46012;-54
2021/07/27 04:27:59;;;;;;;36.33;10.63;;;;;;;;;;143737;569;46020;-54
2021/07/27 04:30:27;;;;;;;41.92;12.15;;;;;;;;;;143733;652;46020;-54
2021/07/27 04:32:54;;;;;;;30.50;9.93;;;;;;;;;;143732;723;46020;-53
2021/07/27 04:35:21;;;;;;;55.42;14.40;;;;;;;;;;143735;567;46020;-52
2021/07/27 04:37:56;;;;;;;29.35;10.20;;;;;;;;;;143739;565;45029;-53
2021/07/27 04:40:23;;;;;;;23.52;9.68;;;;;;;;;;143736;632;46021;-54
2021/07/27 04:42:50;;;;;;;20.17;8.75;;;;;;;;;;143734;577;46010;-53
2021/07/27 04:45:18;;;;;;;11.23;7.10;;;;;;;;;;143728;594;46020;-53
2021/07/27 04:47:45;;;;;;;18.10;8.40;;;;;;;;;;143730;603;46010;-53
2021/07/27 04:50:12;;;;;;;22.08;7.62;;;;;;;;;;143727;564;46020;-53
2021/07/27 04:52:41;;;;;;;26.08;9.07;;;;;;;;;;143726;585;46020;-54
2021/07/27 04:55:09;;;;;;;22.62;7.40;;;;;;;;;;143725;589;46021;-52
2021/07/27 04:57:36;;;;;;;17.05;7.75;;;;;;;;;;143731;592;46012;-53
2021/07/27 05:00:16;;;;;;;17.00;7.32;;;;;;;;;;143729;577;46020;-53
2021/07/27 05:02:42;;;;;;;19.52;8.52;;;;;;;;;;143726;606;46020;-53
2021/07/27 05:05:10;;;;;;;14.43;7.87;;;;;;;;;;143728;652;46020;-53
2021/07/27 05:07:37;;;;;;;15.95;7.80;;;;;;;;;;143730;667;46020;-53
2021/07/27 05:10:04;;;;;;;24.00;8.60;;;;;;;;;;143727;619;46021;-53
2021/07/27 05:12:31;;;;;;;19.08;7.50;;;;;;;;;;143725;618;46020;-53
2021/07/27 05:14:59;;;;;;;18.60;8.50;;;;;;;;;;143728;597;46020;-53
2021/07/27 05:17:26;;;;;;;22.90;8.95;;;;;;;;;;143730;576;46012;-53
2021/07/27 05:19:53;;;;;;;24.98;9.20;;;;;;;;;;143722;567;47023;-53
2021/07/27 05:22:23;;;;;;;23.67;9.93;;;;;;;;;;143727;671;46020;-53
2021/07/27 05:24:51;;;;;;;24.02;10.20;;;;;;;;;;143728;583;46019;-53
2021/07/27 05:27:25;;;;;;;33.72;10.90;;;;;;;;;;143732;581;45020;-52
2021/07/27 05:29:56;;;;;;;22.25;8.90;;;;;;;;;;143727;574;46022;-53
2021/07/27 05:32:24;;;;;;;27.33;10.55;;;;;;;;;;143728;574;46011;-53
2021/07/27 05:34:52;;;;;;;22.20;9.35;;;;;;;;;;143726;704;46020;-52
2021/07/27 05:37:19;;;;;;;23.85;9.05;;;;;;;;;;143729;566;46012;-53
2021/07/27 05:39:46;;;;;;;26.70;10.25;;;;;;;;;;143727;578;46022;-53
2021/07/27 05:42:14;;;;;;;27.27;11.38;;;;;;;;;;143726;628;46010;-53
2021/07/27 05:44:41;;;;;;;29.42;15.77;;;;;;;;;;143725;591;46020;-53
2021/07/27 05:47:08;;;;;;;38.75;18.30;;;;;;;;;;143730;584;46012;-53
2021/07/27 05:49:37;;;;;;;39.42;18.27;;;;;;;;;;143728;600;46020;-53
2021/07/27 05:52:04;;;;;;;32.88;14.63;;;;;;;;;;143726;580;46010;-54
2021/07/27 05:54:31;;;;;;;34.83;13.38;;;;;;;;;;143729;755;46021;-53
2021/07/27 05:56:58;;;;;;;27.48;13.75;;;;;;;;;;143729;713;46012;-54
2021/07/27 05:59:25;;;;;;;26.55;13.93;;;;;;;;;;143727;591;46022;-54
2021/07/27 06:01:52;;;;;;;26.67;13.95;;;;;;;;;;143727;590;46010;-53
2021/07/27 06:04:19;;;;;;;27.08;13.27;;;;;;;;;;143730;567;45020;-54
2021/07/27 06:06:47;;;;;;;27.67;12.07;;;;;;;;;;143730;581;46012;-53
2021/07/27 06:09:14;;;;;;;30.08;19.12;;;;;;;;;;143727;624;46022;-54
2021/07/27 06:11:41;;;;;;;33.28;16.73;;;;;;;;;;143727;591;46020;-54
2021/07/27 06:14:09;;;;;;;29.83;15.07;;;;;;;;;;143726;595;46020;-53
2021/07/27 06:16:37;;;;;;;26.45;11.57;;;;;;;;;;143731;581;46012;-53
2021/07/27 06:19:05;;;;;;;30.37;15.52;;;;;;;;;;143730;610;46020;-53
2021/07/27 06:21:33;;;;;;;25.52;12.25;;;;;;;;;;143727;620;46010;-54
2021/07/27 06:24:00;;;;;;;26.55;14.52;;;;;;;;;;143727;574;46021;-53
2021/07/27 06:26:27;;;;;;;24.37;11.30;;;;;;;;;;143731;603;46012;-54
2021/07/27 06:28:54;;;;;;;25.02;11.40;;;;;;;;;;143730;564;46020;-53
2021/07/27 06:31:21;;;;;;;21.48;11.55;;;;;;;;;;143726;639;46021;-53
2021/07/27 06:33:49;;;;;;;20.95;12.20;;;;;;;;;;143729;597;46018;-54
2021/07/27 06:36:16;;;;;;;22.45;10.30;;;;;;;;;;143731;587;46020;-54
2021/07/27 06:38:43;;;;;;;22.02;10.70;;;;;;;;;;143729;617;46021;-54
2021/07/27 06:41:11;;;;;;;17.90;10.05;;;;;;;;;;143727;674;46010;-54
2021/07/27 06:43:39;;;;;;;22.25;9.10;;;;;;;;;;143729;569;46018;-54
2021/07/27 06:46:07;;;;;;;19.05;10.63;;;;;;;;;;143731;575;46012;-53
2021/07/27 06:48:34;;;;;;;15.85;8.00;;;;;;;;;;143730;586;46020;-54
2021/07/27 06:51:11;;;;;;;12.77;7.75;;;;;;;;;;143727;568;46010;-53
2021/07/27 06:53:40;;;;;;;20.20;8.93;;;;;;;;;;143729;565;46019;-54
2021/07/27 06:56:08;;;;;;;23.20;10.10;;;;;;;;;;143729;704;46012;-53
2021/07/27 06:58:36;;;;;;;32.25;17.02;;;;;;;;;;143728;622;46020;-54
2021/07/27 07:01:05;;;;;;;26.87;10.68;;;;;;;;;;143725;600;47010;-54
2021/07/27 07:03:32;;;;;;;19.12;9.00;;;;;;;;;;143724;731;46021;-54
2021/07/27 07:06:00;;;;;;;21.08;11.18;;;;;;;;;;143730;635;46020;-54
2021/07/27 07:08:27;;;;;;;16.35;9.27;;;;;;;;;;143729;644;46022;-54
2021/07/27 07:11:01;;;;;;;17.17;7.95;;;;;;;;;;143727;664;46020;-53
2021/07/27 07:13:28;;;;;;;25.12;14.93;;;;;;;;;;143728;620;46020;-53
2021/07/27 07:15:56;;;;;;;14.77;10.00;;;;;;;;;;143734;670;46013;-55
2021/07/27 07:18:23;;;;;;;14.60;8.05;;;;;;;;;;143728;580;47020;-54
2021/07/27 07:20:51;;;;;;;19.52;8.15;;;;;;;;;;143726;582;46020;-54
2021/07/27 07:23:22;;;;;;;18.98;8.45;;;;;;;;;;143728;623;46019;-53
2021/07/27 07:25:50;;;;;;;14.10;7.25;;;;;;;;;;143728;582;46012;-54
2021/07/27 07:28:20;;;;;;;17.83;7.30;;;;;;;;;;143729;601;46020;-54
2021/07/27 07:30:47;;;;;;;16.75;7.85;;;;;;;;;;143727;570;46011;-53
2021/07/27 07:33:15;;;;;;;14.50;6.82;;;;;;;;;;143725;569;46021;-53
2021/07/27 07:35:42;;;;;;;10.50;6.28;;;;;;;;;;143732;596;46010;-53
2021/07/27 07:38:09;;;;;;;12.85;7.12;;;;;;;;;;143731;631;46021;-53
2021/07/27 07:40:36;;;;;;;12.98;6.12;;;;;;;;;;143727;584;46010;-53
2021/07/27 07:43:03;;;;;;;11.02;5.40;;;;;;;;;;143727;575;46020;-53
2021/07/27 07:45:31;;;;;;;13.32;5.40;;;;;;;;;;143731;578;46012;-53
2021/07/27 07:47:58;;;;;;;10.02;5.50;;;;;;;;;;143729;601;46020;-53
2021/07/27 07:50:28;;;;;;;13.85;4.70;;;;;;;;;;143727;593;46010;-52
2021/07/27 07:53:02;;;;;;;9.80;4.95;;;;;;;;;;143730;611;46019;-53
2021/07/27 07:55:30;;;;;;;9.15;4.30;;;;;;;;;;143732;580;46020;-52
2021/07/27 07:57:58;;;;;;;8.73;5.07;;;;;;;;;;143728;654;46022;-52
2021/07/27 08:00:26;;;;;;;19.50;7.25;;;;;;;;;;143728;577;46020;-52
2021/07/27 08:02:53;;;;;;;15.40;7.50;;;;;;;;;;143730;596;46010;-52
2021/07/27 08:05:21;;;;;;;15.48;8.85;;;;;;;;;;143727;615;49037;-52
2021/07/27 08:07:48;;;;;;;16.90;7.20;;;;;;;;;;143730;582;46021;-52
2021/07/27 08:10:16;;;;;;;11.77;6.75;;;;;;;;;;143725;583;49025;-52
2021/07/27 08:12:46;;;;;;;15.23;7.10;;;;;;;;;;143731;579;46018;-52
2021/07/27 08:15:13;;;;;;;15.95;7.50;;;;;;;;;;143733;578;46013;-51
2021/07/27 08:17:40;;;;;;;21.80;7.82;;;;;;;;;;143729;574;46039;-52
2021/07/27 08:20:08;;;;;;;17.12;7.00;;;;;;;;;;143728;590;46010;-53
2021/07/27 08:22:42;;;;;;;12.30;7.32;;;;;;;;;;143730;699;46021;-53
2021/07/27 08:25:20;;;;;;;19.83;6.50;;;;;;;;;;143729;594;46018;-52
2021/07/27 08:27:47;;;;;;;14.82;7.10;;;;;;;;;;143731;575;46023;-52
2021/07/27 08:30:17;;;;;;;10.18;6.55;;;;;;;;;;143727;684;46020;-52
2021/07/27 08:32:52;;;;;;;9.07;6.03;;;;;;;;;;143730;652;46018;-52
2021/07/27 08:35:21;;;;;;;18.30;6.28;;;;;;;;;;143727;569;48019;-52
2021/07/27 08:37:50;;;;;;;10.13;6.10;;;;;;;;;;143722;580;51021;-54
2021/07/27 08:40:18;;;;;;;12.93;5.70;;;;;;;;;;143728;579;46020;-52
2021/07/27 08:42:46;;;;;;;10.60;5.82;;;;;;;;;;143730;564;46018;-53
2021/07/27 08:45:13;;;;;;;10.00;6.15;;;;;;;;;;143730;586;48018;-52
2021/07/27 08:47:49;;;;;;;9.43;6.03;;;;;;;;;;143722;572;50020;-53
2021/07/27 08:50:18;;;;;;;12.43;6.20;;;;;;;;;;143728;636;46010;-53
2021/07/27 08:52:45;;;;;;;10.48;6.28;;;;;;;;;;143729;652;46019;-53
2021/07/27 08:55:13;;;;;;;10.93;5.37;;;;;;;;;;143732;564;46020;-54
2021/07/27 08:57:56;;;;;;;11.27;6.32;;;;;;;;;;143729;577;46020;-54
2021/07/27 09:00:24;;;;;;;9.70;5.75;;;;;;;;;;143729;663;46021;-54
2021/07/27 09:02:51;;;;;;;13.10;5.72;;;;;;;;;;143729;585;46018;-53
2021/07/27 09:05:19;;;;;;;14.05;6.47;;;;;;;;;;143732;579;46020;-54
2021/07/27 09:07:46;;;;;;;14.15;6.32;;;;;;;;;;143726;621;49021;-53
2021/07/27 09:10:21;;;;;;;10.90;6.22;;;;;;;;;;143728;593;46020;-53
2021/07/27 09:12:55;;;;;;;10.68;6.18;;;;;;;;;;143730;579;46018;-53
2021/07/27 09:15:24;;;;;;;12.27;7.12;;;;;;;;;;143733;591;46020;-53
2021/07/27 09:17:56;;;;;;;16.20;6.22;;;;;;;;;;143730;582;46020;-54
2021/07/27 09:20:34;;;;;;;10.35;5.57;;;;;;;;;;143724;648;47012;-53
2021/07/27 09:23:02;;;;;;;10.75;5.82;;;;;;;;;;143732;560;45040;-53
2021/07/27 09:25:31;;;;;;;10.77;5.50;;;;;;;;;;143733;578;46012;-54
2021/07/27 09:28:06;;;;;;;10.38;5.28;;;;;;;;;;143728;606;46022;-54
2021/07/27 09:30:34;;;;;;;9.18;5.35;;;;;;;;;;143728;575;46021;-54
2021/07/27 09:33:01;;;;;;;10.05;5.50;;;;;;;;;;143727;586;46020;-54
2021/07/27 09:35:28;;;;;;;14.38;5.43;;;;;;;;;;143732;604;46020;-54
2021/07/27 09:38:06;;;;;;;15.45;6.62;;;;;;;;;;143726;592;49010;-54
2021/07/27 09:40:38;;;;;;;18.27;5.68;;;;;;;;;;143728;599;46020;-55
2021/07/27 09:43:05;;;;;;;9.60;5.32;;;;;;;;;;143726;571;46020;-54
2021/07/27 09:45:33;;;;;;;15.55;5.37;;;;;;;;;;143721;573;50021;-54
2021/07/27 09:48:01;;;;;;;10.85;5.25;;;;;;;;;;143724;644;50020;-54
2021/07/27 09:50:27;;;;;;;12.10;5.60;;;;;;;;;;143726;621;50010;-54
2021/07/27 09:52:54;;;;;;;10.98;5.82;;;;;;;;;;143729;580;46018;-54
2021/07/27 09:55:22;;;;;;;18.37;5.60;;;;;;;;;;143733;585;46012;-54
2021/07/27 09:57:49;;;;;;;12.98;5.32;;;;;;;;;;143728;569;46022;-54
2021/07/27 10:00:17;;;;;;;12.18;4.97;;;;;;;;;;143729;587;46021;-54
2021/07/27 10:02:48;;;;;;;15.48;4.97;;;;;;;;;;143731;573;46018;-54
2021/07/27 10:05:21;;;;;;;9.48;5.22;;;;;;;;;;143733;616;46020;-54
2021/07/27 10:07:58;;;;;;;16.98;6.22;;;;;;;;;;143731;588;46021;-54
2021/07/27 10:10:43;;;;;;;11.10;5.07;;;;;;;;;;143729;609;46010;-54
2021/07/27 10:13:15;;;;;;;8.80;5.00;;;;;;;;;;143729;569;46018;-54
2021/07/27 10:15:45;;;;;;;9.77;4.95;;;;;;;;;;143733;637;46012;-54
2021/07/27 10:18:13;;;;;;;10.15;5.37;;;;;;;;;;143730;606;46020;-54
2021/07/27 10:20:41;;;;;;;12.23;5.10;;;;;;;;;;143728;566;46020;-54
2021/07/27 10:23:19;;;;;;;7.85;4.72;;;;;;;;;;143730;575;46018;-53
2021/07/27 10:25:57;;;;;;;6.75;5.25;;;;;;;;;;143733;594;46020;-54
2021/07/27 10:28:27;;;;;;;9.32;4.75;;;;;;;;;;143729;583;46022;-54
2021/07/27 10:31:05;;;;;;;10.85;5.50;;;;;;;;;;143729;634;46021;-54
2021/07/27 10:33:32;;;;;;;14.93;5.90;;;;;;;;;;143731;627;45020;-54
2021/07/27 10:35:59;;;;;;;10.57;5.55;;;;;;;;;;143732;617;46020;-55
2021/07/27 10:38:36;;;;;;;12.70;6.80;;;;;;;;;;143727;661;50023;-54
2021/07/27 10:41:19;;;;;;;12.27;5.87;;;;;;;;;;143728;564;46020;-54
2021/07/27 10:43:47;;;;;;;13.70;5.97;;;;;;;;;;143731;601;46020;-55
2021/07/27 10:46:14;;;;;;;10.55;6.60;;;;;;;;;;143731;567;46012;-55
2021/07/27 10:48:42;;;;;;;14.02;5.95;;;;;;;;;;143729;625;47020;-55
2021/07/27 10:51:09;;;;;;;13.82;6.43;;;;;;;;;;143728;595;46020;-55
2021/07/27 10:53:37;;;;;;;11.00;5.75;;;;;;;;;;143731;593;46018;-55
2021/07/27 10:56:08;;;;;;;11.77;5.65;;;;;;;;;;143733;576;46012;-54
2021/07/27 10:58:36;;;;;;;13.68;5.87;;;;;;;;;;143732;579;46021;-54
2021/07/27 11:01:12;;;;;;;11.95;5.97;;;;;;;;;;143728;577;46028;-55
2021/07/27 11:03:43;;;;;;;12.07;5.53;;;;;;;;;;143729;570;46020;-54
2021/07/27 11:06:10;;;;;;;21.40;5.75;;;;;;;;;;143732;589;46020;-55
2021/07/27 11:08:37;;;;;;;12.20;5.50;;;;;;;;;;143729;569;47020;-55
2021/07/27 11:11:09;;;;;;;8.32;5.40;;;;;;;;;;143729;578;46010;-55
2021/07/27 11:13:39;;;;;;;11.12;6.40;;;;;;;;;;143730;624;46019;-55
2021/07/27 11:16:06;;;;;;;8.07;5.05;;;;;;;;;;143731;599;46012;-55
2021/07/27 11:18:33;;;;;;;11.77;5.87;;;;;;;;;;143728;571;47022;-54
2021/07/27 11:21:01;;;;;;;11.30;5.50;;;;;;;;;;143728;593;46023;-55
2021/07/27 11:23:34;;;;;;;15.00;5.97;;;;;;;;;;143727;569;46021;-55
2021/07/27 11:26:01;;;;;;;18.48;6.45;;;;;;;;;;143733;572;46012;-55
2021/07/27 11:28:38;;;;;;;16.35;5.90;;;;;;;;;;143729;616;46022;-55
2021/07/27 11:31:21;;;;;;;7.85;5.43;;;;;;;;;;143727;569;46021;-55
2021/07/27 11:33:51;;;;;;;12.73;6.22;;;;;;;;;;143729;575;46018;-54
2021/07/27 11:36:25;;;;;;;14.55;5.90;;;;;;;;;;143732;602;46012;-54
2021/07/27 11:39:08;;;;;;;9.80;5.10;;;;;;;;;;143730;584;46020;-56
2021/07/27 11:41:34;;;;;;;11.48;5.85;;;;;;;;;;143729;647;46020;-55
2021/07/27 11:44:02;;;;;;;12.10;5.12;;;;;;;;;;143731;625;46019;-55
2021/07/27 11:46:36;;;;;;;9.65;5.85;;;;;;;;;;143731;583;46012;-55
2021/07/27 11:49:08;;;;;;;14.05;5.45;;;;;;;;;;143729;588;47020;-55
2021/07/27 11:51:36;;;;;;;18.23;6.40;;;;;;;;;;143728;591;46011;-55
2021/07/27 11:54:03;;;;;;;15.88;6.55;;;;;;;;;;143728;573;46020;-55
2021/07/27 11:56:30;;;;;;;12.63;6.28;;;;;;;;;;143733;576;46012;-55
2021/07/27 11:59:05;;;;;;;18.17;6.12;;;;;;;;;;143730;569;46021;-55
2021/07/27 12:01:44;;;;;;;8.90;5.25;;;;;;;;;;143729;583;46010;-54
2021/07/27 12:04:11;;;;;;;12.65;5.40;;;;;;;;;;143732;636;45039;-54
2021/07/27 12:06:48;;;;;;;10.82;6.40;;;;;;;;;;143733;572;46012;-55
2021/07/27 12:09:15;;;;;;;14.38;5.82;;;;;;;;;;143730;573;46020;-55
2021/07/27 12:11:43;;;;;;;8.38;4.28;;;;;;;;;;143728;587;46020;-55
2021/07/27 12:14:10;;;;;;;6.50;4.68;;;;;;;;;;143731;607;46019;-54
2021/07/27 12:16:37;;;;;;;12.32;5.18;;;;;;;;;;143733;576;46012;-54
2021/07/27 12:19:04;;;;;;;11.20;4.78;;;;;;;;;;143730;619;46020;-55
2021/07/27 12:21:31;;;;;;;9.93;4.62;;;;;;;;;;143728;603;46010;-55
2021/07/27 12:23:59;;;;;;;7.87;4.95;;;;;;;;;;143728;564;46020;-54
2021/07/27 12:26:26;;;;;;;6.30;4.32;;;;;;;;;;143734;564;45020;-54
2021/07/27 12:28:53;;;;;;;11.98;4.78;;;;;;;;;;143730;608;46021;-55
2021/07/27 12:31:20;;;;;;;9.93;4.70;;;;;;;;;;143728;593;46020;-54
2021/07/27 12:33:47;;;;;;;10.73;4.93;;;;;;;;;;143728;590;46020;-55
2021/07/27 12:36:14;;;;;;;10.93;5.47;;;;;;;;;;143731;589;46020;-54
2021/07/27 12:38:41;;;;;;;14.52;5.65;;;;;;;;;;143730;570;46020;-55
2021/07/27 12:41:08;;;;;;;7.28;4.55;;;;;;;;;;143725;592;46020;-55
2021/07/27 12:43:35;;;;;;;7.22;4.55;;;;;;;;;;143729;648;46019;-55
2021/07/27 12:46:02;;;;;;;7.10;4.80;;;;;;;;;;143730;619;46012;-55
2021/07/27 12:48:30;;;;;;;10.35;5.22;;;;;;;;;;143728;603;46020;-55
2021/07/27 12:50:57;;;;;;;9.75;5.28;;;;;;;;;;143725;587;46020;-55
2021/07/27 12:53:26;;;;;;;8.73;4.75;;;;;;;;;;143729;603;46018;-55
2021/07/27 12:55:55;;;;;;;9.55;4.75;;;;;;;;;;143731;590;46020;-54
2021/07/27 12:58:22;;;;;;;13.27;5.05;;;;;;;;;;143727;571;46022;-54
2021/07/27 13:00:49;;;;;;;6.78;4.55;;;;;;;;;;143726;640;46020;-54
2021/07/27 13:03:18;;;;;;;7.53;4.75;;;;;;;;;;143727;609;46020;-54
2021/07/27 13:05:46;;;;;;;5.87;4.45;;;;;;;;;;143730;582;46020;-54
2021/07/27 13:08:13;;;;;;;7.62;4.60;;;;;;;;;;143727;579;47020;-54
2021/07/27 13:10:40;;;;;;;10.15;4.70;;;;;;;;;;143727;607;46010;-55
2021/07/27 13:13:07;;;;;;;17.73;6.45;;;;;;;;;;143730;567;46019;-53
2021/07/27 13:15:35;;;;;;;10.70;5.18;;;;;;;;;;143731;574;46012;-55
2021/07/27 13:18:02;;;;;;;15.15;5.07;;;;;;;;;;143728;643;46020;-53
2021/07/27 13:20:29;;;;;;;14.00;5.47;;;;;;;;;;143726;564;46010;-54
2021/07/27 13:22:57;;;;;;;6.90;4.60;;;;;;;;;;143727;654;46020;-54
2021/07/27 13:25:24;;;;;;;8.48;4.85;;;;;;;;;;143730;596;46020;-54
2021/07/27 13:27:51;;;;;;;11.82;5.05;;;;;;;;;;143727;599;46022;-55
2021/07/27 13:30:19;;;;;;;5.93;4.65;;;;;;;;;;143726;570;46010;-54
2021/07/27 13:32:46;;;;;;;7.53;4.37;;;;;;;;;;143728;577;46018;-53
2021/07/27 13:35:13;;;;;;;7.43;4.00;;;;;;;;;;143729;593;46020;-54
2021/07/27 13:37:40;;;;;;;5.95;4.50;;;;;;;;;;143726;570;47020;-53
2021/07/27 13:40:09;;;;;;;8.52;4.47;;;;;;;;;;143727;575;46010;-53
2021/07/27 13:42:36;;;;;;;12.75;4.55;;;;;;;;;;143727;608;46020;-54
2021/07/27 13:45:04;;;;;;;7.82;4.40;;;;;;;;;;143730;585;46021;-54
2021/07/27 13:47:32;;;;;;;7.25;4.62;;;;;;;;;;143728;627;46020;-54
2021/07/27 13:50:03;;;;;;;8.93;4.68;;;;;;;;;;143726;571;46020;-54
2021/07/27 13:52:30;;;;;;;7.60;4.30;;;;;;;;;;143729;635;46018;-54
2021/07/27 13:54:57;;;;;;;6.32;4.18;;;;;;;;;;143731;597;46010;-54
2021/07/27 13:57:24;;;;;;;6.90;4.70;;;;;;;;;;143726;624;46022;-54
2021/07/27 13:59:51;;;;;;;10.40;4.30;;;;;;;;;;143726;588;46021;-54
2021/07/27 14:02:18;;;;;;;6.72;4.20;;;;;;;;;;143729;580;46010;-53
2021/07/27 14:04:45;;;;;;;6.10;4.40;;;;;;;;;;143731;597;46012;-54
2021/07/27 14:07:13;;;;;;;8.73;4.50;;;;;;;;;;143729;647;46020;-54
2021/07/27 14:09:40;;;;;;;6.78;4.50;;;;;;;;;;143725;600;46010;-53
2021/07/27 14:12:07;;;;;;;7.35;4.80;;;;;;;;;;143728;617;46019;-54
2021/07/27 14:14:35;;;;;;;6.25;4.37;;;;;;;;;;143731;613;46012;-54
2021/07/27 14:17:02;;;;;;;6.25;4.60;;;;;;;;;;143729;596;46020;-54
2021/07/27 14:19:29;;;;;;;9.05;4.30;;;;;;;;;;143727;583;46011;-54
2021/07/27 14:21:56;;;;;;;8.48;4.37;;;;;;;;;;143730;586;46010;-54
2021/07/27 14:24:23;;;;;;;7.18;4.30;;;;;;;;;;143729;570;46012;-54
2021/07/27 14:26:50;;;;;;;6.30;4.37;;;;;;;;;;143729;581;46021;-54
2021/07/27 14:29:17;;;;;;;6.55;4.43;;;;;;;;;;143726;592;46010;-54
2021/07/27 14:31:45;;;;;;;10.55;4.47;;;;;;;;;;143726;577;46020;-54
2021/07/27 14:34:12;;;;;;;6.97;4.32;;;;;;;;;;143729;644;46013;-54
2021/07/27 14:36:39;;;;;;;9.57;4.78;;;;;;;;;;143725;628;47020;-54
2021/07/27 14:39:06;;;;;;;8.07;4.80;;;;;;;;;;143729;647;45915;-54
2021/07/27 14:41:33;;;;;;;8.32;4.55;;;;;;;;;;143730;589;46019;-54
2021/07/27 14:44:02;;;;;;;9.18;4.62;;;;;;;;;;143731;573;46021;-54
2021/07/27 14:46:29;;;;;;;6.87;4.07;;;;;;;;;;143728;576;46020;-53
2021/07/27 14:48:56;;;;;;;9.00;4.35;;;;;;;;;;143726;583;46020;-53
2021/07/27 14:51:23;;;;;;;9.00;4.05;;;;;;;;;;143726;573;46021;-53
2021/07/27 14:53:50;;;;;;;7.22;4.60;;;;;;;;;;143730;628;46020;-55
2021/07/27 14:56:17;;;;;;;12.77;4.62;;;;;;;;;;143727;639;46022;-54
2021/07/27 14:58:45;;;;;;;8.77;4.53;;;;;;;;;;143727;586;46010;-55
2021/07/27 15:01:12;;;;;;;9.15;4.50;;;;;;;;;;143728;569;46018;-54
2021/07/27 15:03:39;;;;;;;6.97;4.30;;;;;;;;;;143730;591;46012;-54
2021/07/27 15:06:06;;;;;;;9.63;4.60;;;;;;;;;;143727;596;46022;-54
2021/07/27 15:08:33;;;;;;;10.80;4.40;;;;;;;;;;143726;786;46026;-54